createdAt,value
2023-04-06T00:01:43.785Z,1.00
2023-04-06T00:04:11.295Z,1.00
2023-04-06T00:06:38.938Z,1.00
2023-04-06T00:09:06.312Z,1.00
2023-04-06T00:11:33.778Z,1.00
2023-04-06T00:14:01.300Z,1.00
2023-04-06T00:16:30.442Z,1.00
2023-04-06T00:18:57.840Z,1.00
2023-04-06T00:21:26.654Z,1.00
2023-04-06T00:23:53.741Z,1.00
2023-04-06T00:26:21.042Z,1.00
2023-04-06T00:28:48.132Z,1.00
2023-04-06T00:31:15.657Z,1.00
2023-04-06T00:33:42.643Z,1.00
2023-04-06T00:36:10.054Z,1.00
2023-04-06T00:38:37.296Z,1.00
2023-04-06T00:41:05.441Z,1.00
2023-04-06T00:43:33.875Z,1.00
2023-04-06T00:46:01.195Z,1.00
2023-04-06T00:48:28.268Z,1.00
2023-04-06T00:50:55.574Z,1.00
2023-04-06T00:53:22.657Z,1.00
2023-04-06T00:55:50.199Z,1.00
2023-04-06T00:58:17.293Z,1.00
2023-04-06T01:00:44.650Z,1.00
2023-04-06T01:03:11.696Z,1.00
2023-04-06T01:05:41.574Z,1.00
2023-04-06T01:08:08.872Z,1.00
2023-04-06T01:10:36.407Z,1.00
2023-04-06T01:13:03.636Z,1.00
2023-04-06T01:15:31.991Z,1.00
2023-04-06T01:17:59.017Z,1.00
2023-04-06T01:20:26.328Z,1.00
2023-04-06T01:22:53.293Z,1.00
2023-04-06T01:25:20.814Z,1.00
2023-04-06T01:27:47.799Z,1.00
2023-04-06T01:30:15.576Z,1.00
2023-04-06T01:32:42.875Z,1.00
2023-04-06T01:35:10.655Z,1.00
2023-04-06T01:37:37.960Z,1.00
2023-04-06T01:40:06.025Z,1.00
2023-04-06T01:42:33.290Z,1.00
2023-04-06T01:45:00.937Z,1.00
2023-04-06T01:47:28.098Z,1.00
2023-04-06T01:49:55.369Z,1.00
2023-04-06T01:52:22.415Z,1.00
2023-04-06T01:54:49.762Z,1.00
2023-04-06T01:57:16.833Z,1.00
2023-04-06T01:59:44.249Z,1.00
2023-04-06T02:02:11.423Z,1.00
2023-04-06T02:04:38.833Z,1.00
2023-04-06T02:07:06.006Z,1.00
2023-04-06T02:09:33.216Z,1.00
2023-04-06T02:12:00.232Z,1.00
2023-04-06T02:14:27.727Z,1.00
2023-04-06T02:16:55.338Z,1.00
2023-04-06T02:19:23.475Z,1.00
2023-04-06T02:21:50.691Z,1.00
2023-04-06T02:24:17.988Z,1.00
2023-04-06T02:26:44.984Z,1.00
2023-04-06T02:29:12.557Z,1.00
2023-04-06T02:31:39.550Z,1.00
2023-04-06T02:34:08.223Z,1.00
2023-04-06T02:36:35.490Z,1.00
2023-04-06T02:39:02.957Z,1.00
2023-04-06T02:41:29.987Z,1.00
2023-04-06T02:43:57.389Z,1.00
2023-04-06T02:46:24.659Z,1.00
2023-04-06T02:48:52.550Z,1.00
2023-04-06T02:51:19.656Z,1.00
2023-04-06T02:53:47.343Z,1.00
2023-04-06T02:56:14.489Z,1.00
2023-04-06T02:58:41.906Z,1.00
2023-04-06T03:01:09.013Z,1.00
2023-04-06T03:03:36.477Z,1.00
2023-04-06T03:06:04.177Z,1.00
2023-04-06T03:08:31.467Z,1.00
2023-04-06T03:10:58.500Z,1.00
2023-04-06T03:13:25.971Z,1.00
2023-04-06T03:15:53.035Z,1.00
2023-04-06T03:18:24.318Z,1.00
2023-04-06T03:20:51.922Z,1.00
2023-04-06T03:23:21.777Z,1.00
2023-04-06T03:25:48.762Z,1.00
2023-04-06T03:28:17.123Z,1.00
2023-04-06T03:30:44.200Z,1.00
2023-04-06T03:33:11.595Z,1.00
2023-04-06T03:35:38.906Z,1.00
2023-04-06T03:38:06.474Z,1.00
2023-04-06T03:40:33.477Z,1.00
2023-04-06T03:43:00.831Z,1.00
2023-04-06T03:45:27.852Z,1.00
2023-04-06T03:47:55.276Z,1.00
2023-04-06T03:50:22.464Z,1.00
2023-04-06T03:52:50.029Z,1.00
2023-04-06T03:55:17.161Z,1.00
2023-04-06T03:57:44.404Z,1.00
2023-04-06T04:00:12.060Z,1.00
2023-04-06T04:02:39.588Z,1.00
2023-04-06T04:05:07.213Z,1.00
2023-04-06T04:07:34.507Z,1.00
2023-04-06T04:10:01.460Z,1.00
2023-04-06T04:12:28.682Z,1.00
2023-04-06T04:14:55.787Z,1.00
2023-04-06T04:17:23.278Z,1.00
2023-04-06T04:19:50.436Z,1.00
2023-04-06T04:22:17.684Z,1.00
2023-04-06T04:24:44.735Z,1.00
2023-04-06T04:27:12.065Z,1.00
2023-04-06T04:29:39.181Z,1.00
2023-04-06T04:32:06.559Z,1.00
2023-04-06T04:34:33.916Z,1.00
2023-04-06T04:37:01.544Z,1.00
2023-04-06T04:39:28.492Z,1.00
2023-04-06T04:41:56.351Z,1.00
2023-04-06T04:44:23.320Z,1.00
2023-04-06T04:46:50.917Z,1.00
2023-04-06T04:49:17.872Z,1.00
2023-04-06T04:51:45.376Z,1.00
2023-04-06T04:54:12.399Z,1.00
2023-04-06T04:56:39.798Z,99.90
2023-04-06T04:59:07.254Z,99.90
2023-04-06T05:01:43.990Z,99.90
2023-04-06T05:04:21.539Z,99.90
2023-04-06T05:06:48.816Z,99.90
2023-04-06T05:09:16.128Z,99.90
2023-04-06T05:11:43.467Z,47.10
2023-04-06T05:14:13.593Z,42.10
2023-04-06T05:16:41.108Z,1.00
2023-04-06T05:19:08.357Z,1.00
2023-04-06T05:21:35.803Z,99.90
2023-04-06T05:24:03.604Z,99.90
2023-04-06T05:26:31.405Z,99.90
2023-04-06T05:28:58.512Z,99.90
2023-04-06T05:31:26.115Z,93.80
2023-04-06T05:33:53.412Z,99.90
2023-04-06T05:36:20.771Z,99.90
2023-04-06T05:38:48.110Z,70.20
2023-04-06T05:41:15.637Z,99.90
2023-04-06T05:43:42.679Z,71.30
2023-04-06T05:46:09.991Z,1.00
2023-04-06T05:48:36.989Z,99.90
2023-04-06T05:51:07.209Z,99.90
2023-04-06T05:53:34.268Z,1.00
2023-04-06T05:56:05.343Z,1.00
2023-04-06T05:58:32.388Z,99.90
2023-04-06T06:01:04.090Z,99.90
2023-04-06T06:03:31.235Z,99.90
2023-04-06T06:06:05.001Z,99.90
2023-04-06T06:08:32.587Z,99.90
2023-04-06T06:10:59.869Z,99.90
2023-04-06T06:13:26.985Z,99.90
2023-04-06T06:15:54.633Z,1.00
2023-04-06T06:18:21.662Z,1.00
2023-04-06T06:20:49.107Z,99.90
2023-04-06T06:23:16.174Z,99.90
2023-04-06T06:25:43.598Z,1.00
2023-04-06T06:28:10.553Z,1.00
2023-04-06T06:30:37.938Z,1.00
2023-04-06T06:33:05.001Z,1.00
2023-04-06T06:35:32.373Z,1.00
2023-04-06T06:37:59.525Z,99.90
2023-04-06T06:40:28.159Z,99.90
2023-04-06T06:42:55.513Z,99.90
2023-04-06T06:45:23.266Z,1.00
2023-04-06T06:47:51.677Z,99.90
2023-04-06T06:50:20.252Z,1.00
2023-04-06T06:52:47.309Z,60.10
2023-04-06T06:55:14.881Z,1.00
2023-04-06T06:57:43.448Z,99.90
2023-04-06T07:00:13.263Z,99.90
2023-04-06T07:02:41.193Z,99.90
2023-04-06T07:05:23.610Z,99.90
2023-04-06T07:07:53.707Z,99.90
2023-04-06T07:10:21.368Z,99.90
2023-04-06T07:12:49.466Z,99.90
2023-04-06T07:15:18.233Z,99.90
2023-04-06T07:17:48.120Z,99.90
2023-04-06T07:20:16.090Z,99.90
2023-04-06T07:22:49.341Z,99.90
2023-04-06T07:25:16.745Z,99.90
2023-04-06T07:27:43.982Z,88.20
2023-04-06T07:30:11.837Z,1.00
2023-04-06T07:32:39.268Z,1.00
2023-04-06T07:35:07.464Z,2.00
2023-04-06T07:37:34.555Z,1.00
2023-04-06T07:40:01.899Z,1.00
2023-04-06T07:42:29.003Z,1.00
2023-04-06T07:44:56.603Z,7.30
2023-04-06T07:47:24.625Z,99.90
2023-04-06T07:49:51.989Z,1.00
2023-04-06T07:52:19.044Z,99.90
2023-04-06T07:54:46.824Z,1.00
2023-04-06T07:57:13.773Z,99.90
2023-04-06T07:59:41.232Z,99.90
2023-04-06T08:02:08.411Z,1.00
2023-04-06T08:04:36.922Z,20.80
2023-04-06T08:07:04.112Z,93.10
2023-04-06T08:09:32.965Z,13.70
2023-04-06T08:12:00.198Z,1.00
2023-04-06T08:14:27.959Z,1.00
2023-04-06T08:16:55.091Z,1.00
2023-04-06T08:19:22.640Z,99.90
2023-04-06T08:25:37.915Z,99.90
2023-04-06T08:28:05.578Z,99.90
2023-04-06T08:30:32.860Z,99.90
2023-04-06T08:33:00.514Z,42.00
2023-04-06T08:35:28.572Z,67.50
2023-04-06T08:37:56.332Z,99.90
2023-04-06T08:40:23.436Z,63.90
2023-04-06T08:42:56.661Z,99.90
2023-04-06T08:45:24.171Z,99.90
2023-04-06T08:47:55.805Z,1.00
2023-04-06T08:50:23.364Z,1.00
2023-04-06T08:52:50.823Z,1.00
2023-04-06T08:55:18.022Z,45.80
2023-04-06T08:57:48.104Z,59.10
2023-04-06T09:00:15.918Z,99.90
2023-04-06T09:02:46.481Z,99.90
2023-04-06T09:05:14.245Z,99.90
2023-04-06T09:07:41.923Z,99.90
2023-04-06T09:10:09.394Z,99.90
2023-04-06T09:12:37.066Z,99.90
2023-04-06T09:15:04.437Z,97.60
2023-04-06T09:17:34.731Z,98.30
2023-04-06T09:20:03.806Z,97.00
2023-04-06T09:22:41.595Z,98.50
2023-04-06T09:25:10.818Z,99.90
2023-04-06T09:27:39.276Z,99.90
2023-04-06T09:30:15.221Z,99.90
2023-04-06T09:32:48.014Z,99.90
2023-04-06T09:35:16.338Z,99.90
2023-04-06T09:37:44.930Z,99.90
2023-04-06T09:40:12.686Z,99.90
2023-04-06T09:42:42.712Z,99.90
2023-04-06T09:45:10.311Z,99.90
2023-04-06T09:47:39.099Z,99.90
2023-04-06T09:50:08.399Z,99.90
2023-04-06T09:52:50.453Z,99.90
2023-04-06T09:55:37.772Z,99.90
2023-04-06T09:58:09.935Z,99.90
2023-04-06T10:01:06.458Z,99.90
2023-04-06T10:03:58.809Z,99.90
2023-04-06T10:06:32.647Z,99.90
2023-04-06T10:09:02.293Z,99.90
2023-04-06T10:11:30.057Z,99.90
2023-04-06T10:13:57.789Z,99.90
2023-04-06T10:16:26.200Z,99.90
2023-04-06T10:18:59.088Z,99.90
2023-04-06T10:21:28.785Z,99.90
2023-04-06T10:24:01.376Z,99.90
2023-04-06T10:26:29.127Z,99.90
2023-04-06T10:29:06.476Z,99.90
2023-04-06T10:31:33.874Z,99.90
2023-04-06T10:34:03.118Z,99.90
2023-04-06T10:36:34.564Z,99.90
2023-04-06T10:39:05.494Z,99.90
2023-04-06T10:41:48.856Z,99.90
2023-04-06T10:44:23.088Z,99.90
2023-04-06T10:46:58.001Z,99.90
2023-04-06T10:49:27.876Z,99.90
2023-04-06T10:51:56.779Z,99.90
2023-04-06T10:54:26.901Z,99.90
2023-04-06T10:56:54.220Z,99.90
2023-04-06T10:59:22.886Z,99.90
2023-04-06T11:01:50.909Z,99.90
2023-04-06T11:04:19.984Z,99.90
2023-04-06T11:06:51.171Z,99.90
2023-04-06T11:09:26.254Z,99.90
2023-04-06T11:11:53.588Z,99.90
2023-04-06T11:14:21.191Z,99.90
2023-04-06T11:16:52.345Z,99.90
2023-04-06T11:19:19.979Z,99.90
2023-04-06T11:21:49.062Z,99.90
2023-04-06T11:24:24.278Z,99.90
2023-04-06T11:26:52.625Z,99.90
2023-04-06T11:29:22.445Z,99.90
2023-04-06T11:31:51.756Z,99.90
2023-04-06T11:34:22.524Z,99.90
2023-04-06T11:36:57.667Z,99.90
2023-04-06T11:39:28.493Z,99.90
2023-04-06T11:42:01.006Z,99.90
2023-04-06T11:44:43.616Z,99.90
2023-04-06T11:47:12.659Z,99.90
2023-04-06T11:49:43.271Z,99.90
2023-04-06T11:52:36.634Z,99.90
2023-04-06T11:55:18.506Z,99.90
2023-04-06T11:57:46.219Z,99.90
2023-04-06T12:00:14.179Z,99.90
2023-04-06T12:02:46.374Z,99.90
2023-04-06T12:05:14.077Z,99.90
2023-04-06T12:10:09.614Z,99.90
2023-04-06T12:12:36.700Z,99.90
2023-04-06T12:15:04.449Z,99.90
2023-04-06T12:17:31.736Z,99.90
2023-04-06T12:20:05.235Z,99.90
2023-04-06T12:22:37.374Z,99.90
2023-04-06T12:25:05.663Z,1.00
2023-04-06T12:27:32.693Z,99.90
2023-04-06T12:30:00.188Z,1.00
2023-04-06T12:32:27.302Z,1.00
2023-04-06T12:34:55.122Z,1.00
2023-04-06T12:37:22.201Z,1.00
2023-04-06T12:39:49.658Z,1.00
2023-04-06T12:42:16.978Z,1.00
2023-04-06T12:44:44.401Z,1.00
2023-04-06T12:47:12.109Z,69.70
2023-04-06T12:49:39.838Z,64.60
2023-04-06T12:52:06.972Z,99.90
2023-04-06T12:54:34.637Z,98.80
2023-04-06T12:57:02.101Z,73.70
2023-04-06T12:59:35.661Z,95.00
2023-04-06T13:02:02.946Z,51.50
2023-04-06T13:04:30.321Z,99.90
2023-04-06T13:07:00.591Z,99.90
2023-04-06T13:09:28.137Z,99.90
2023-04-06T13:11:55.501Z,99.90
2023-04-06T13:14:23.037Z,99.90
2023-04-06T13:16:50.860Z,1.00
2023-04-06T13:19:19.271Z,1.00
2023-04-06T13:21:46.490Z,1.50
2023-04-06T13:24:16.219Z,2.90
2023-04-06T13:26:43.678Z,99.90
2023-04-06T13:29:11.326Z,99.90
2023-04-06T13:31:39.112Z,3.10
2023-04-06T13:34:07.297Z,33.00
2023-04-06T13:36:34.392Z,1.00
2023-04-06T13:39:01.940Z,1.00
2023-04-06T13:41:28.980Z,1.00
2023-04-06T13:43:56.456Z,1.00
2023-04-06T13:46:25.269Z,1.00
2023-04-06T13:48:52.940Z,1.00
2023-04-06T13:51:20.151Z,1.00
2023-04-06T13:53:47.496Z,1.00
2023-04-06T13:56:14.434Z,1.00
2023-04-06T13:58:41.957Z,99.90
2023-04-06T14:01:11.508Z,1.00
2023-04-06T14:03:40.740Z,1.00
2023-04-06T14:08:45.451Z,1.00
2023-04-06T14:11:13.918Z,8.80
2023-04-06T14:13:41.523Z,99.90
2023-04-06T14:16:08.651Z,1.00
2023-04-06T14:18:38.076Z,1.00
2023-04-06T14:21:05.378Z,52.40
2023-04-06T14:23:34.019Z,99.90
2023-04-06T14:26:11.708Z,1.00
2023-04-06T14:28:39.329Z,1.00
2023-04-06T14:31:16.240Z,99.90
2023-04-06T14:33:44.084Z,99.90
2023-04-06T14:36:12.216Z,1.00
2023-04-06T14:38:40.554Z,94.60
2023-04-06T14:41:08.978Z,99.90
2023-04-06T14:43:36.493Z,99.90
2023-04-06T14:46:03.767Z,99.90
2023-04-06T14:48:31.127Z,99.90
2023-04-06T14:50:58.817Z,99.90
2023-04-06T14:53:27.291Z,99.90
2023-04-06T14:55:54.736Z,99.90
2023-04-06T14:58:23.856Z,99.90
2023-04-06T15:00:56.265Z,99.90
2023-04-06T15:03:26.145Z,99.90
2023-04-06T15:05:54.086Z,1.00
2023-04-06T15:08:23.236Z,1.00
2023-04-06T15:10:51.583Z,1.00
2023-04-06T15:13:19.339Z,1.00
2023-04-06T15:15:46.494Z,1.00
2023-04-06T15:18:14.124Z,1.00
2023-04-06T15:20:42.017Z,1.00
2023-04-06T15:23:09.450Z,1.00
2023-04-06T15:25:36.526Z,1.00
2023-04-06T15:28:04.111Z,1.00
2023-04-06T15:30:31.157Z,1.00
2023-04-06T15:33:03.708Z,1.00
2023-04-06T15:35:31.047Z,1.00
2023-04-06T15:37:58.577Z,1.00
2023-04-06T15:40:26.122Z,1.00
2023-04-06T15:42:53.576Z,1.00
2023-04-06T15:45:20.497Z,1.00
2023-04-06T15:47:47.830Z,1.00
2023-04-06T15:50:15.228Z,1.00
2023-04-06T15:52:42.594Z,1.00
2023-04-06T15:55:09.966Z,1.00
2023-04-06T15:57:37.285Z,1.00
2023-04-06T16:00:06.153Z,1.00
2023-04-06T16:02:33.730Z,1.00
2023-04-06T16:05:03.006Z,1.00
2023-04-06T16:07:32.037Z,1.00
2023-04-06T16:09:59.355Z,1.00
2023-04-06T16:12:28.557Z,1.00
2023-04-06T16:14:56.124Z,1.00
2023-04-06T16:17:23.457Z,1.00
2023-04-06T16:19:50.566Z,1.00
2023-04-06T16:22:17.986Z,1.00
2023-04-06T16:24:45.053Z,1.00
2023-04-06T16:27:12.384Z,1.00
2023-04-06T16:29:39.457Z,1.00
2023-04-06T16:32:07.020Z,1.00
2023-04-06T16:34:34.493Z,1.10
2023-04-06T16:37:02.149Z,5.00
2023-04-06T16:39:29.325Z,7.80
2023-04-06T16:41:56.836Z,12.40
2023-04-06T16:44:24.244Z,16.70
2023-04-06T16:46:52.528Z,24.10
2023-04-06T16:49:20.772Z,25.60
2023-04-06T16:51:49.928Z,33.80
2023-04-06T16:54:17.168Z,34.50
2023-04-06T16:56:44.649Z,40.10
2023-04-06T16:59:12.047Z,41.10
2023-04-06T17:01:39.605Z,48.20
2023-04-06T17:04:06.875Z,49.00
2023-04-06T17:06:34.286Z,52.80
2023-04-06T17:09:01.367Z,53.20
2023-04-06T17:11:39.409Z,54.00
2023-04-06T17:14:12.863Z,55.50
2023-04-06T17:16:40.475Z,59.00
2023-04-06T17:19:07.852Z,59.50
2023-04-06T17:21:36.214Z,60.40
2023-04-06T17:24:03.341Z,60.90
2023-04-06T17:26:31.113Z,62.20
2023-04-06T17:28:58.545Z,63.60
2023-04-06T17:31:27.270Z,66.00
2023-04-06T17:33:56.481Z,67.70
2023-04-06T17:36:24.675Z,68.20
2023-04-06T17:38:51.962Z,68.80
2023-04-06T17:41:20.463Z,69.80
2023-04-06T17:43:48.785Z,68.90
2023-04-06T17:46:16.915Z,68.40
2023-04-06T17:48:44.316Z,68.90
2023-04-06T17:51:15.303Z,69.30
2023-04-06T17:53:42.400Z,62.70
2023-04-06T17:56:09.645Z,60.70
2023-04-06T17:58:36.726Z,62.50
2023-04-06T18:01:08.725Z,65.30
2023-04-06T18:03:35.967Z,65.70
2023-04-06T18:06:12.259Z,64.80
2023-04-06T18:08:40.597Z,64.70
2023-04-06T18:11:16.186Z,63.90
2023-04-06T18:13:43.324Z,62.70
2023-04-06T18:16:11.490Z,63.50
2023-04-06T18:18:39.170Z,63.70
2023-04-06T18:21:07.749Z,63.00
2023-04-06T18:23:36.479Z,61.30
2023-04-06T18:26:05.912Z,60.90
2023-04-06T18:28:33.674Z,61.70
2023-04-06T18:31:02.437Z,60.60
2023-04-06T18:33:29.947Z,62.10
2023-04-06T18:35:57.670Z,63.60
2023-04-06T18:38:24.915Z,64.60
2023-04-06T18:40:53.042Z,67.50
2023-04-06T18:43:20.245Z,68.10
2023-04-06T18:45:47.802Z,68.30
2023-04-06T18:48:14.994Z,69.60
2023-04-06T18:50:53.005Z,70.50
2023-04-06T18:53:21.155Z,69.00
2023-04-06T18:55:49.991Z,68.70
2023-04-06T18:58:17.035Z,69.30
2023-04-06T19:00:44.747Z,71.70
2023-04-06T19:03:12.064Z,73.20
2023-04-06T19:05:43.262Z,75.40
2023-04-06T19:08:10.930Z,77.30
2023-04-06T19:10:38.989Z,77.80
2023-04-06T19:13:06.189Z,78.20
2023-04-06T19:15:33.862Z,78.50
2023-04-06T19:18:01.319Z,80.30
2023-04-06T19:20:29.112Z,81.80
2023-04-06T19:22:57.396Z,83.00
2023-04-06T19:25:25.314Z,84.50
2023-04-06T19:27:52.749Z,86.30
2023-04-06T19:30:20.514Z,86.90
2023-04-06T19:32:47.556Z,87.80
2023-04-06T19:35:15.527Z,87.80
2023-04-06T19:37:43.312Z,88.80
2023-04-06T19:40:10.952Z,89.80
2023-04-06T19:42:38.955Z,90.10
2023-04-06T19:45:07.238Z,90.50
2023-04-06T19:47:35.527Z,91.00
2023-04-06T19:50:04.609Z,91.20
2023-04-06T19:52:32.846Z,91.50
2023-04-06T19:55:00.510Z,91.60
2023-04-06T19:57:28.007Z,91.90
2023-04-06T19:59:55.582Z,91.90
2023-04-06T20:02:23.154Z,91.80
2023-04-06T20:04:50.863Z,92.00
2023-04-06T20:07:17.848Z,92.00
2023-04-06T20:09:45.118Z,92.10
2023-04-06T20:12:12.083Z,92.60
2023-04-06T20:14:39.324Z,93.30
2023-04-06T20:17:06.549Z,93.80
2023-04-06T20:19:34.174Z,94.30
2023-04-06T20:22:03.623Z,94.70
2023-04-06T20:24:31.560Z,95.10
2023-04-06T20:26:59.427Z,95.70
2023-04-06T20:29:27.836Z,96.10
2023-04-06T20:31:55.010Z,96.40
2023-04-06T20:34:25.938Z,96.80
2023-04-06T20:36:53.767Z,97.30
2023-04-06T20:39:21.113Z,97.60
2023-04-06T20:41:48.550Z,98.10
2023-04-06T20:44:16.330Z,98.40
2023-04-06T20:46:45.700Z,98.60
2023-04-06T20:49:13.128Z,98.80
2023-04-06T20:51:42.580Z,99.20
2023-04-06T20:54:10.325Z,99.40
2023-04-06T20:56:37.586Z,99.70
2023-04-06T20:59:05.205Z,99.90
2023-04-06T21:01:32.369Z,99.90
2023-04-06T21:04:02.437Z,99.90
2023-04-06T21:06:32.243Z,99.90
2023-04-06T21:09:00.648Z,99.90
2023-04-06T21:11:27.765Z,99.90
2023-04-06T21:13:55.410Z,99.90
2023-04-06T21:16:22.753Z,99.90
2023-04-06T21:18:50.730Z,99.90
2023-04-06T21:21:18.091Z,99.90
2023-04-06T21:23:45.402Z,99.90
2023-04-06T21:26:13.085Z,99.90
2023-04-06T21:28:40.526Z,99.90
2023-04-06T21:31:08.879Z,99.90
2023-04-06T21:33:36.537Z,99.90
2023-04-06T21:36:07.564Z,99.90
2023-04-06T21:38:37.893Z,99.90
2023-04-06T21:41:06.532Z,99.90
2023-04-06T21:43:33.968Z,99.90
2023-04-06T21:46:01.112Z,99.90
2023-04-06T21:48:28.460Z,99.90
2023-04-06T21:50:55.510Z,99.90
2023-04-06T21:53:22.742Z,99.90
2023-04-06T21:55:49.755Z,99.90
2023-04-06T21:58:17.097Z,99.90
2023-04-06T22:00:44.205Z,99.90
2023-04-06T22:03:12.053Z,99.90
2023-04-06T22:05:39.344Z,99.90
2023-04-06T22:08:06.805Z,99.90
2023-04-06T22:10:33.859Z,99.90
2023-04-06T22:13:01.264Z,99.90
2023-04-06T22:15:28.345Z,99.90
2023-04-06T22:17:55.560Z,99.90
2023-04-06T22:20:22.671Z,99.90
2023-04-06T22:22:50.592Z,99.90
2023-04-06T22:25:17.591Z,99.90
2023-04-06T22:27:44.897Z,99.90
2023-04-06T22:30:12.197Z,99.90
2023-04-06T22:32:39.590Z,99.90
2023-04-06T22:35:07.271Z,99.90
2023-04-06T22:37:34.608Z,99.90
2023-04-06T22:40:01.554Z,99.90
2023-04-06T22:42:29.088Z,99.90
2023-04-06T22:44:56.270Z,99.90
2023-04-06T22:47:23.758Z,99.90
2023-04-06T22:49:50.743Z,99.90
2023-04-06T22:52:18.100Z,99.90
2023-04-06T22:54:45.419Z,99.90
2023-04-06T22:57:12.703Z,99.90
2023-04-06T22:59:39.697Z,99.90
2023-04-06T23:02:07.240Z,99.90
2023-04-06T23:04:34.440Z,99.90
2023-04-06T23:07:01.784Z,99.90
2023-04-06T23:09:28.912Z,99.90
2023-04-06T23:11:56.614Z,99.90
2023-04-06T23:14:23.571Z,99.90
2023-04-06T23:16:51.252Z,99.90
2023-04-06T23:19:18.344Z,99.90
2023-04-06T23:21:45.847Z,99.90
2023-04-06T23:24:12.871Z,99.90
2023-04-06T23:26:40.501Z,99.90
2023-04-06T23:29:07.474Z,99.90
2023-04-06T23:31:35.011Z,99.90
2023-04-06T23:34:02.352Z,99.90
2023-04-06T23:36:30.047Z,99.90
2023-04-06T23:38:57.327Z,99.90
2023-04-06T23:41:26.698Z,99.90
2023-04-06T23:43:54.106Z,99.90
2023-04-06T23:46:24.272Z,99.90
2023-04-06T23:48:51.265Z,99.90
2023-04-06T23:51:18.662Z,99.90
2023-04-06T23:53:46.295Z,99.90
2023-04-06T23:56:13.565Z,99.90
2023-04-06T23:58:40.589Z,99.90
